createdAt,value
2022-11-04T00:00:18.069Z,20.2
2022-11-04T00:03:20.826Z,19.6
2022-11-04T00:06:08.243Z,22.2
2022-11-04T00:08:55.549Z,21.8
2022-11-04T00:11:45.633Z,17.8
2022-11-04T00:15:05.631Z,19.4
2022-11-04T00:18:25.936Z,18
2022-11-04T00:21:13.298Z,24.2
2022-11-04T00:24:32.657Z,21.5
2022-11-04T00:27:51.717Z,15.8
2022-11-04T00:31:19.726Z,20.1
2022-11-04T00:34:38.696Z,16.5
2022-11-04T00:37:26.121Z,18.1
2022-11-04T00:40:13.903Z,17.6
2022-11-04T00:43:02.186Z,18.2
2022-11-04T00:45:49.490Z,20.8
2022-11-04T00:48:36.855Z,20.4
2022-11-04T00:51:24.219Z,17.9
2022-11-04T00:54:12.263Z,20.1
2022-11-04T00:56:59.876Z,20.4
2022-11-04T00:59:47.686Z,18.4
2022-11-04T01:02:35.128Z,18.9
2022-11-04T01:05:22.534Z,20.1
2022-11-04T01:08:09.804Z,22.6
2022-11-04T01:10:57.232Z,21.6
2022-11-04T01:13:47.124Z,20
2022-11-04T01:16:36.379Z,20.6
2022-11-04T01:19:24.618Z,22.2
2022-11-04T01:22:12.037Z,22.4
2022-11-04T01:24:59.459Z,21.9
2022-11-04T01:27:46.891Z,21.7
2022-11-04T01:30:34.238Z,17.3
2022-11-04T01:33:24.170Z,21.9
2022-11-04T01:36:11.455Z,22.9
2022-11-04T01:38:59.174Z,23.2
2022-11-04T01:41:46.627Z,22.7
2022-11-04T01:44:34.064Z,23.2
2022-11-04T01:47:35.291Z,22.5
2022-11-04T01:50:26.711Z,21.7
2022-11-04T01:53:17.598Z,20
2022-11-04T01:56:11.955Z,20
2022-11-04T01:59:01.687Z,19.3
2022-11-04T02:01:54.923Z,25.9
2022-11-04T02:04:42.623Z,18.6
2022-11-04T02:07:31.250Z,19.7
2022-11-04T02:10:19.727Z,24.6
2022-11-04T02:13:12.098Z,24.9
2022-11-04T02:15:59.647Z,18.1
2022-11-04T02:18:55.082Z,22.8
2022-11-04T02:21:50.442Z,18.5
2022-11-04T02:24:57.160Z,22.1
2022-11-04T02:28:00.744Z,17
2022-11-04T02:31:15.240Z,17.7
2022-11-04T02:34:11.292Z,22.4
2022-11-04T02:37:06.682Z,20.3
2022-11-04T02:40:01.428Z,19.5
2022-11-04T02:42:59.546Z,25.2
2022-11-04T02:45:53.263Z,22.4
2022-11-04T02:48:48.344Z,22.8
2022-11-04T02:51:42.750Z,20
2022-11-04T02:54:36.189Z,21.8
2022-11-04T02:57:29.964Z,21
2022-11-04T03:00:22.393Z,18.9
2022-11-04T03:03:10.873Z,20.8
2022-11-04T03:06:02.937Z,15.9
2022-11-04T03:08:54.217Z,20.8
2022-11-04T03:11:44.628Z,21.4
2022-11-04T03:14:40.429Z,21.7
2022-11-04T03:17:33.815Z,20.5
2022-11-04T03:20:28.209Z,18.8
2022-11-04T03:23:17.908Z,23
2022-11-04T03:26:05.324Z,20
2022-11-04T03:28:59.916Z,18.1
2022-11-04T03:32:01.605Z,20.9
2022-11-04T03:34:55.705Z,22.5
2022-11-04T03:37:43.032Z,19.9
2022-11-04T03:40:32.550Z,22.2
2022-11-04T03:43:20.378Z,22.9
2022-11-04T03:46:12.391Z,18.5
2022-11-04T03:48:59.725Z,25.4
2022-11-04T03:51:48.033Z,21.4
2022-11-04T03:54:36.223Z,19.5
2022-11-04T03:57:24.437Z,20.7
2022-11-04T04:00:29.344Z,21.9
2022-11-04T04:03:24.063Z,18.5
2022-11-04T04:06:17.793Z,24.3
2022-11-04T04:09:12.109Z,20.9
2022-11-04T04:12:05.826Z,22.5
2022-11-04T04:15:01.077Z,22
2022-11-04T04:17:53.253Z,23.1
2022-11-04T04:20:46.450Z,22.9
2022-11-04T04:23:37.008Z,20.5
2022-11-04T04:26:59.250Z,27.4
2022-11-04T04:30:19.576Z,25.5
2022-11-04T04:33:07.101Z,24.3
2022-11-04T04:35:58.885Z,20
2022-11-04T04:38:47.194Z,22.6
2022-11-04T04:42:06.778Z,23.2
2022-11-04T04:45:26.466Z,23.2
2022-11-04T04:48:19.277Z,22
2022-11-04T04:51:06.722Z,21.1
2022-11-04T04:53:54.358Z,19.6
2022-11-04T04:56:41.671Z,20.1
2022-11-04T04:59:29.278Z,24.7
2022-11-04T05:02:17.806Z,21.2
2022-11-04T05:05:05.360Z,24.2
2022-11-04T05:07:53.766Z,25.3
2022-11-04T05:10:41.225Z,20
2022-11-04T05:13:28.898Z,22.1
2022-11-04T05:16:17.289Z,27
2022-11-04T05:19:04.813Z,22.7
2022-11-04T05:21:52.194Z,20.5
2022-11-04T05:24:39.591Z,21.3
2022-11-04T05:27:26.856Z,24.1
2022-11-04T05:30:14.969Z,21.2
2022-11-04T05:33:04.997Z,23.4
2022-11-04T05:35:52.878Z,25.3
2022-11-04T05:38:40.312Z,26.5
2022-11-04T05:41:28.819Z,23.8
2022-11-04T05:44:17.121Z,21.8
2022-11-04T05:47:04.551Z,22.4
2022-11-04T05:49:51.889Z,21.2
2022-11-04T05:52:39.361Z,21.9
2022-11-04T05:55:26.630Z,23.6
2022-11-04T05:58:14.491Z,24.1
2022-11-04T06:01:01.806Z,22.3
2022-11-04T06:03:58.369Z,25.2
2022-11-04T06:06:47.054Z,25.3
2022-11-04T06:09:34.607Z,23
2022-11-04T06:12:25.122Z,26.9
2022-11-04T06:15:12.567Z,22
2022-11-04T06:18:00.000Z,25.7
2022-11-04T06:20:47.434Z,23
2022-11-04T06:23:34.884Z,26.3
2022-11-04T06:26:26.833Z,28
2022-11-04T06:29:16.639Z,27.4
2022-11-04T06:32:04.064Z,25.9
2022-11-04T06:34:51.630Z,25.8
2022-11-04T06:37:38.917Z,27.5
2022-11-04T06:40:26.249Z,24.2
2022-11-04T06:43:13.450Z,23.5
2022-11-04T06:46:00.787Z,22.2
2022-11-04T06:48:49.592Z,22.3
2022-11-04T06:51:37.418Z,25.3
2022-11-04T06:54:24.797Z,23.4
2022-11-04T06:57:12.133Z,20.6
2022-11-04T06:59:59.502Z,22.2
2022-11-04T07:02:47.256Z,25.2
2022-11-04T07:05:34.886Z,22.2
2022-11-04T07:08:23.114Z,23.7
2022-11-04T07:11:10.653Z,24.2
2022-11-04T07:13:58.388Z,25.2
2022-11-04T07:16:45.910Z,25.9
2022-11-04T07:19:35.942Z,25.1
2022-11-04T07:22:23.863Z,28
2022-11-04T07:25:11.180Z,26.1
2022-11-04T07:28:01.200Z,28.2
2022-11-04T07:30:50.421Z,27.9
2022-11-04T07:33:41.197Z,26.6
2022-11-04T07:36:28.781Z,30.1
2022-11-04T07:39:17.389Z,24.4
2022-11-04T07:42:04.705Z,25.6
2022-11-04T07:44:52.922Z,23
2022-11-04T07:47:40.588Z,24.6
2022-11-04T07:50:28.234Z,25
2022-11-04T07:53:16.792Z,24.4
2022-11-04T07:56:04.189Z,22.4
2022-11-04T07:58:56.136Z,21.1
2022-11-04T08:01:43.619Z,26
2022-11-04T08:04:31.540Z,23
2022-11-04T08:07:19.509Z,25.6
2022-11-04T08:10:06.848Z,26.6
2022-11-04T08:12:55.338Z,26.9
2022-11-04T08:15:42.881Z,25.3
2022-11-04T08:18:30.434Z,26.9
2022-11-04T08:21:19.289Z,28.1
2022-11-04T08:24:06.940Z,22.3
2022-11-04T08:26:54.289Z,26.9
2022-11-04T08:29:41.962Z,23.1
2022-11-04T08:32:29.616Z,25
2022-11-04T08:35:18.061Z,26.7
2022-11-04T08:38:05.427Z,23.8
2022-11-04T08:40:58.568Z,22.7
2022-11-04T08:43:49.593Z,27.4
2022-11-04T08:46:37.373Z,23.4
2022-11-04T08:49:26.459Z,29.2
2022-11-04T08:52:14.196Z,24.4
2022-11-04T08:55:01.611Z,27.3
2022-11-04T08:57:49.481Z,24
2022-11-04T09:00:36.841Z,22.2
2022-11-04T09:03:24.379Z,25.8
2022-11-04T09:06:11.682Z,22.4
2022-11-04T09:09:04.149Z,26
2022-11-04T09:11:53.443Z,25.9
2022-11-04T09:14:40.796Z,21.7
2022-11-04T09:17:28.032Z,28.9
2022-11-04T09:20:16.471Z,27.3
2022-11-04T09:23:03.843Z,23.6
2022-11-04T09:25:51.926Z,22
2022-11-04T09:28:40.598Z,23.3
2022-11-04T09:31:28.953Z,19.4
2022-11-04T09:34:17.332Z,24.3
2022-11-04T09:37:05.193Z,22.7
2022-11-04T09:39:54.029Z,27.2
2022-11-04T09:42:41.558Z,25.6
2022-11-04T09:45:40.929Z,27.1
2022-11-04T09:48:29.178Z,23.5
2022-11-04T09:51:47.862Z,27.7
2022-11-04T09:54:47.293Z,26.8
2022-11-04T09:57:42.866Z,26.8
2022-11-04T10:00:42.109Z,20.5
2022-11-04T10:03:37.661Z,22.3
2022-11-04T10:06:38.866Z,20.1
2022-11-04T10:09:39.967Z,23.6
2022-11-04T10:12:40.143Z,26.7
2022-11-04T10:15:39.019Z,30
2022-11-04T10:18:48.458Z,26.4
2022-11-04T10:21:51.365Z,26.4
2022-11-04T10:24:48.850Z,31.8
2022-11-04T10:27:48.321Z,24.9
2022-11-04T10:30:37.430Z,26.2
2022-11-04T10:33:29.164Z,22.9
2022-11-04T10:36:20.838Z,27.2
2022-11-04T10:39:10.056Z,26.8
2022-11-04T10:42:11.844Z,25.3
2022-11-04T10:45:02.641Z,23.4
2022-11-04T10:47:50.462Z,23.5
2022-11-04T10:50:43.129Z,21.8
2022-11-04T10:53:37.052Z,26.8
2022-11-04T10:56:24.492Z,21.7
2022-11-04T10:59:20.871Z,27.4
2022-11-04T11:02:11.959Z,25.6
2022-11-04T11:04:59.575Z,22.9
2022-11-04T11:07:59.695Z,22.3
2022-11-04T11:10:47.098Z,23.9
2022-11-04T11:13:37.389Z,25
2022-11-04T11:16:27.085Z,23.1
2022-11-04T11:19:16.406Z,23.7
2022-11-04T11:22:05.942Z,20.9
2022-11-04T11:25:16.402Z,27.1
2022-11-04T11:28:10.542Z,26
2022-11-04T11:31:07.146Z,27.9
2022-11-04T11:34:03.342Z,23.8
2022-11-04T11:36:59.634Z,31.4
2022-11-04T11:39:50.365Z,27.4
2022-11-04T11:42:37.687Z,25.1
2022-11-04T11:45:27.114Z,21.9
2022-11-04T11:48:16.441Z,23.2
2022-11-04T11:51:31.770Z,24.7
2022-11-04T11:54:21.899Z,20.5
2022-11-04T11:57:24.004Z,24.5
2022-11-04T12:00:38.993Z,26.2
2022-11-04T12:12:14.164Z,25.3
2022-11-04T12:15:18.984Z,20.4
2022-11-04T12:18:19.560Z,24.9
2022-11-04T12:21:28.761Z,21.6
2022-11-04T12:24:21.090Z,23.5
2022-11-04T12:27:19.746Z,31.9
2022-11-04T12:30:15.990Z,25.6
2022-11-04T12:33:06.278Z,60.2
2022-11-04T12:36:08.951Z,27.6
2022-11-04T12:39:10.645Z,29
2022-11-04T12:42:21.074Z,23
2022-11-04T12:45:19.709Z,22
2022-11-04T12:48:20.285Z,25.8
2022-11-04T12:51:21.145Z,27
2022-11-04T12:54:21.284Z,28.6
2022-11-04T12:57:26.556Z,28.5
2022-11-04T13:00:22.716Z,24.8
2022-11-04T13:03:12.878Z,22
2022-11-04T13:06:06.116Z,30
2022-11-04T13:08:59.526Z,23.5
2022-11-04T13:11:51.462Z,24.2
2022-11-04T13:14:44.088Z,24.8
2022-11-04T13:17:36.004Z,19.6
2022-11-04T13:20:26.479Z,24.6
2022-11-04T13:23:20.967Z,25.2
2022-11-04T13:26:13.921Z,24.6
2022-11-04T13:29:08.492Z,28.6
2022-11-04T13:32:00.112Z,26.7
2022-11-04T13:34:54.154Z,26.7
2022-11-04T13:37:49.771Z,32.9
2022-11-04T13:40:45.098Z,29.8
2022-11-04T13:43:50.984Z,39.3
2022-11-04T13:46:44.487Z,29.9
2022-11-04T13:49:37.223Z,34.8
2022-11-04T13:52:25.252Z,28.5
2022-11-04T13:55:17.614Z,36.1
2022-11-04T13:58:06.330Z,35.2
2022-11-04T14:01:07.693Z,30
2022-11-04T14:03:58.069Z,24.6
2022-11-04T14:07:09.704Z,37.5
2022-11-04T14:10:00.412Z,27.3
2022-11-04T14:12:48.353Z,29.6
2022-11-04T14:15:35.948Z,25.4
2022-11-04T14:18:55.871Z,30.4
2022-11-04T14:22:30.715Z,37.7
2022-11-04T14:25:23.473Z,39
2022-11-04T14:28:15.849Z,40.7
2022-11-04T14:31:17.129Z,31.4
2022-11-04T14:34:21.373Z,29.2
2022-11-04T14:37:12.321Z,31.3
2022-11-04T14:40:06.954Z,40.2
2022-11-04T14:43:11.143Z,30.4
2022-11-04T14:46:13.004Z,33.1
2022-11-04T14:49:07.712Z,32.2
2022-11-04T14:52:17.021Z,33.7
2022-11-04T14:55:09.400Z,34.3
2022-11-04T14:58:00.911Z,39.1
2022-11-04T15:01:07.977Z,35.9
2022-11-04T15:04:12.332Z,33.8
2022-11-04T15:07:14.087Z,50.9
2022-11-04T15:10:17.716Z,41.8
2022-11-04T15:13:09.620Z,40.6
2022-11-04T15:15:57.142Z,44.4
2022-11-04T15:18:45.887Z,42.6
2022-11-04T15:21:34.864Z,48.1
2022-11-04T15:24:24.729Z,51.8
2022-11-04T15:27:13.049Z,47.8
2022-11-04T15:30:03.401Z,47.6
2022-11-04T15:33:05.744Z,39.4
2022-11-04T15:36:02.326Z,42.4
2022-11-04T15:38:50.779Z,66.3
2022-11-04T15:41:42.394Z,36.5
2022-11-04T15:45:02.774Z,36
2022-11-04T15:48:12.759Z,38.1
2022-11-04T15:51:19.413Z,36.4
2022-11-04T15:54:09.486Z,41.1
2022-11-04T15:57:06.030Z,39.2
2022-11-04T16:00:00.160Z,49.3
2022-11-04T16:02:51.541Z,61.4
2022-11-04T16:05:41.968Z,64.9
2022-11-04T16:08:44.824Z,69.3
2022-11-04T16:11:46.090Z,68.3
2022-11-04T16:14:53.070Z,104.3
2022-11-04T16:17:42.085Z,109.1
2022-11-04T16:20:30.334Z,79.6
2022-11-04T16:23:20.465Z,61.3
2022-11-04T16:26:12.657Z,48.8
2022-11-04T16:29:00.489Z,54.8
2022-11-04T16:31:53.573Z,84.8
2022-11-04T16:34:58.960Z,82.8
2022-11-04T16:37:57.773Z,51.4
2022-11-04T16:40:46.837Z,46.1
2022-11-04T16:43:35.392Z,41.1
2022-11-04T16:46:26.940Z,44
2022-11-04T16:49:15.636Z,37.6
2022-11-04T16:52:06.334Z,36
2022-11-04T16:54:58.674Z,44
2022-11-04T16:57:47.105Z,37.2
2022-11-04T17:00:36.289Z,31.9
2022-11-04T17:03:23.697Z,33.4
2022-11-04T17:06:11.180Z,46
2022-11-04T17:08:59.926Z,34.9
2022-11-04T17:11:47.904Z,39.1
2022-11-04T17:14:35.450Z,35.9
2022-11-04T17:17:22.806Z,45
2022-11-04T17:20:10.021Z,36.4
2022-11-04T17:23:00.155Z,38.4
2022-11-04T17:25:47.556Z,30.6
2022-11-04T17:28:35.876Z,49.5
2022-11-04T17:31:23.325Z,58.1
2022-11-04T17:34:11.749Z,41.1
2022-11-04T17:36:59.083Z,46.3
2022-11-04T17:39:47.083Z,38.7
2022-11-04T17:42:34.420Z,38.4
2022-11-04T17:45:53.302Z,37.5
2022-11-04T17:49:18.627Z,49.2
2022-11-04T17:52:08.413Z,54.9
2022-11-04T17:54:55.792Z,43.4
2022-11-04T17:57:43.452Z,39
2022-11-04T18:00:31.120Z,91.5
2022-11-04T18:03:19.070Z,93.5
2022-11-04T18:06:06.442Z,65.5
2022-11-04T18:08:54.649Z,47.9
2022-11-04T18:11:43.717Z,43.6
2022-11-04T18:15:03.788Z,40.1
2022-11-04T18:17:54.903Z,44.5
2022-11-04T18:20:42.161Z,48.1
2022-11-04T18:23:30.110Z,39.2
2022-11-04T18:26:18.540Z,46.7
2022-11-04T18:29:06.196Z,49.8
2022-11-04T18:31:53.923Z,40.1
2022-11-04T18:34:41.227Z,39
2022-11-04T18:37:29.072Z,35.2
2022-11-04T18:40:18.071Z,39.9
2022-11-04T18:43:08.879Z,40.2
2022-11-04T18:45:56.932Z,39.6
2022-11-04T18:48:44.273Z,40.4
2022-11-04T18:51:34.923Z,37.1
2022-11-04T18:54:22.468Z,38.7
2022-11-04T18:57:09.827Z,43.8
2022-11-04T18:59:57.700Z,42.8
2022-11-04T19:02:45.219Z,35.6
2022-11-04T19:05:32.533Z,39.4
2022-11-04T19:08:24.280Z,44.5
2022-11-04T19:11:11.567Z,46.4
2022-11-04T19:14:08.075Z,42.3
2022-11-04T19:16:58.974Z,78.1
2022-11-04T19:19:46.252Z,41.3
2022-11-04T19:22:33.722Z,38.3
2022-11-04T19:25:21.099Z,39.7
2022-11-04T19:28:32.824Z,38.5
2022-11-04T19:31:24.564Z,37.2
2022-11-04T19:34:15.935Z,47.2
2022-11-04T19:37:03.370Z,39.7
2022-11-04T19:39:50.742Z,51.2
2022-11-04T19:42:38.456Z,39.8
2022-11-04T19:46:03.810Z,37.8
2022-11-04T19:48:51.885Z,36.1
2022-11-04T19:51:40.398Z,41
2022-11-04T19:54:28.197Z,41.6
2022-11-04T19:57:16.233Z,37.4
2022-11-04T20:00:03.936Z,37.2
2022-11-04T20:02:53.172Z,36.3
2022-11-04T20:05:40.678Z,56.2
2022-11-04T20:08:29.711Z,39
2022-11-04T20:11:18.173Z,37.5
2022-11-04T20:14:08.166Z,42
2022-11-04T20:16:55.785Z,40.7
2022-11-04T20:19:43.072Z,37
2022-11-04T20:22:30.693Z,39.4
2022-11-04T20:25:19.043Z,37
2022-11-04T20:28:06.635Z,36.8
2022-11-04T20:30:54.037Z,38.1
2022-11-04T20:33:41.365Z,37.8
2022-11-04T20:36:29.536Z,35.1
2022-11-04T20:39:18.189Z,42.1
2022-11-04T20:42:06.396Z,39.4
2022-11-04T20:44:54.204Z,37.2
2022-11-04T20:47:41.598Z,42.6
2022-11-04T20:50:29.162Z,37.6
2022-11-04T20:53:17.584Z,36.5
2022-11-04T20:56:04.893Z,43.6
2022-11-04T20:58:59.119Z,41.6
2022-11-04T21:01:48.029Z,38.5
2022-11-04T21:04:36.461Z,40.6
2022-11-04T21:07:24.803Z,39.5
2022-11-04T21:10:12.180Z,40
2022-11-04T21:12:59.600Z,41.5
2022-11-04T21:15:47.617Z,40.1
2022-11-04T21:18:36.964Z,44.6
2022-11-04T21:21:24.625Z,36.5
2022-11-04T21:24:12.980Z,36.8
2022-11-04T21:27:01.578Z,37.7
2022-11-04T21:29:49.054Z,45.1
2022-11-04T21:32:36.370Z,39.5
2022-11-04T21:35:23.850Z,43.6
2022-11-04T21:38:11.534Z,38.1
2022-11-04T21:41:00.578Z,42.3
2022-11-04T21:43:49.179Z,41
2022-11-04T21:46:39.534Z,42.2
2022-11-04T21:49:27.303Z,40.9
2022-11-04T21:52:15.017Z,40.2
2022-11-04T21:55:02.331Z,40.5
2022-11-04T21:57:50.517Z,46.2
2022-11-04T22:00:37.824Z,39
2022-11-04T22:03:25.170Z,40.2
2022-11-04T22:06:12.715Z,43
2022-11-04T22:09:00.070Z,43.4
2022-11-04T22:11:49.313Z,41.4
2022-11-04T22:14:36.753Z,43.1
2022-11-04T22:17:24.099Z,43.3
2022-11-04T22:20:11.410Z,44.6
2022-11-04T22:22:58.632Z,48.5
2022-11-04T22:25:50.141Z,43.2
2022-11-04T22:28:37.835Z,43
2022-11-04T22:31:25.264Z,45
2022-11-04T22:34:14.379Z,51.5
2022-11-04T22:37:01.818Z,43.8
2022-11-04T22:39:49.209Z,43.2
2022-11-04T22:42:36.560Z,44.1
2022-11-04T22:45:23.895Z,40
2022-11-04T22:48:11.583Z,44.9
2022-11-04T22:50:58.853Z,44.3
2022-11-04T22:53:50.056Z,45.9
2022-11-04T22:56:40.827Z,45.7
2022-11-04T22:59:28.154Z,40.6
2022-11-04T23:02:16.084Z,38.7
2022-11-04T23:05:03.588Z,42
2022-11-04T23:07:51.560Z,40.9
2022-11-04T23:10:39.168Z,35.8
2022-11-04T23:13:58.422Z,37
2022-11-04T23:17:17.423Z,38.7
2022-11-04T23:20:38.394Z,35.7
2022-11-04T23:23:25.808Z,37.4
2022-11-04T23:26:45.134Z,36.4
2022-11-04T23:29:33.223Z,36.7
2022-11-04T23:32:52.483Z,37.1
2022-11-04T23:35:42.108Z,31.8
2022-11-04T23:39:03.067Z,30.2
2022-11-04T23:41:50.926Z,37.2
2022-11-04T23:45:09.828Z,27.7
2022-11-04T23:48:28.859Z,33.2
2022-11-04T23:51:49.139Z,30
2022-11-04T23:55:08.201Z,31.6
2022-11-04T23:58:27.173Z,30.3
